sensor_id;sensor_type;location;lat;lon;timestamp;temperature;humidity
21815;DHT22;11069;48.988;8.450;2022-08-04T00:00:11;24.10;90.50
21815;DHT22;11069;48.988;8.450;2022-08-04T00:05:47;24.00;90.00
21815;DHT22;11069;48.988;8.450;2022-08-04T00:08:33;24.00;90.30
21815;DHT22;11069;48.988;8.450;2022-08-04T00:11:02;23.90;90.20
21815;DHT22;11069;48.988;8.450;2022-08-04T00:13:31;23.70;90.40
21815;DHT22;11069;48.988;8.450;2022-08-04T00:16:05;23.70;90.50
21815;DHT22;11069;48.988;8.450;2022-08-04T00:18:38;23.80;89.30
21815;DHT22;11069;48.988;8.450;2022-08-04T00:21:05;24.00;88.80
21815;DHT22;11069;48.988;8.450;2022-08-04T00:23:35;24.20;88.80
21815;DHT22;11069;48.988;8.450;2022-08-04T00:26:02;24.40;87.20
21815;DHT22;11069;48.988;8.450;2022-08-04T00:28:28;24.50;86.80
21815;DHT22;11069;48.988;8.450;2022-08-04T00:30:54;24.60;86.90
21815;DHT22;11069;48.988;8.450;2022-08-04T00:33:20;24.60;87.40
21815;DHT22;11069;48.988;8.450;2022-08-04T00:35:50;24.50;87.90
21815;DHT22;11069;48.988;8.450;2022-08-04T00:38:17;24.50;87.20
21815;DHT22;11069;48.988;8.450;2022-08-04T00:54:26;24.40;87.30
21815;DHT22;11069;48.988;8.450;2022-08-04T01:02:30;24.30;87.50
21815;DHT22;11069;48.988;8.450;2022-08-04T01:05:47;24.20;87.20
21815;DHT22;11069;48.988;8.450;2022-08-04T01:08:05;24.20;88.30
21815;DHT22;11069;48.988;8.450;2022-08-04T01:10:52;24.10;88.80
21815;DHT22;11069;48.988;8.450;2022-08-04T01:16:08;23.60;90.00
21815;DHT22;11069;48.988;8.450;2022-08-04T01:29:55;23.10;91.20
21815;DHT22;11069;48.988;8.450;2022-08-04T01:32:31;23.20;91.20
21815;DHT22;11069;48.988;8.450;2022-08-04T01:35:04;23.10;91.30
21815;DHT22;11069;48.988;8.450;2022-08-04T01:37:39;23.10;91.50
21815;DHT22;11069;48.988;8.450;2022-08-04T01:40:12;23.10;91.00
21815;DHT22;11069;48.988;8.450;2022-08-04T01:42:40;23.20;91.10
21815;DHT22;11069;48.988;8.450;2022-08-04T01:45:08;23.20;90.60
21815;DHT22;11069;48.988;8.450;2022-08-04T01:47:39;23.20;90.60
21815;DHT22;11069;48.988;8.450;2022-08-04T01:50:10;23.20;90.30
21815;DHT22;11069;48.988;8.450;2022-08-04T01:52:37;23.40;89.70
21815;DHT22;11069;48.988;8.450;2022-08-04T01:55:05;23.70;88.70
21815;DHT22;11069;48.988;8.450;2022-08-04T01:57:32;23.90;88.00
21815;DHT22;11069;48.988;8.450;2022-08-04T02:00:02;23.90;88.10
21815;DHT22;11069;48.988;8.450;2022-08-04T02:02:28;23.90;89.00
21815;DHT22;11069;48.988;8.450;2022-08-04T02:04:54;23.80;90.00
21815;DHT22;11069;48.988;8.450;2022-08-04T02:13:19;23.30;91.40
21815;DHT22;11069;48.988;8.450;2022-08-04T02:21:47;22.60;93.90
21815;DHT22;11069;48.988;8.450;2022-08-04T02:24:17;22.40;93.90
21815;DHT22;11069;48.988;8.450;2022-08-04T02:26:48;22.40;94.00
21815;DHT22;11069;48.988;8.450;2022-08-04T02:29:33;22.30;94.40
21815;DHT22;11069;48.988;8.450;2022-08-04T02:32:05;22.20;94.90
21815;DHT22;11069;48.988;8.450;2022-08-04T02:34:46;22.10;95.20
21815;DHT22;11069;48.988;8.450;2022-08-04T02:37:15;21.90;95.60
21815;DHT22;11069;48.988;8.450;2022-08-04T02:39:43;21.80;95.80
21815;DHT22;11069;48.988;8.450;2022-08-04T02:42:11;21.80;95.70
21815;DHT22;11069;48.988;8.450;2022-08-04T02:44:38;21.80;95.40
21815;DHT22;11069;48.988;8.450;2022-08-04T02:47:05;21.60;96.10
21815;DHT22;11069;48.988;8.450;2022-08-04T02:49:35;21.60;96.40
21815;DHT22;11069;48.988;8.450;2022-08-04T02:52:02;21.60;96.60
21815;DHT22;11069;48.988;8.450;2022-08-04T02:54:34;21.50;96.90
21815;DHT22;11069;48.988;8.450;2022-08-04T02:57:03;21.40;97.00
21815;DHT22;11069;48.988;8.450;2022-08-04T02:59:37;21.40;97.20
21815;DHT22;11069;48.988;8.450;2022-08-04T03:02:06;21.30;97.20
21815;DHT22;11069;48.988;8.450;2022-08-04T03:04:57;21.30;97.30
21815;DHT22;11069;48.988;8.450;2022-08-04T03:08:11;21.20;97.90
21815;DHT22;11069;48.988;8.450;2022-08-04T03:11:03;21.10;98.50
21815;DHT22;11069;48.988;8.450;2022-08-04T03:25:32;20.60;99.90
21815;DHT22;11069;48.988;8.450;2022-08-04T03:31:08;20.40;99.90
21815;DHT22;11069;48.988;8.450;2022-08-04T03:45:02;20.50;99.90
21815;DHT22;11069;48.988;8.450;2022-08-04T03:53:19;20.40;99.90
21815;DHT22;11069;48.988;8.450;2022-08-04T03:58:35;20.40;99.90
21815;DHT22;11069;48.988;8.450;2022-08-04T04:17:33;19.90;99.90
21815;DHT22;11069;48.988;8.450;2022-08-04T04:42:06;20.10;99.90
21815;DHT22;11069;48.988;8.450;2022-08-04T04:44:42;20.10;99.90
21815;DHT22;11069;48.988;8.450;2022-08-04T04:53:06;20.30;99.90
21815;DHT22;11069;48.988;8.450;2022-08-04T04:55:41;20.40;99.90
21815;DHT22;11069;48.988;8.450;2022-08-04T04:58:11;20.50;99.90
21815;DHT22;11069;48.988;8.450;2022-08-04T05:03:43;20.70;99.90
21815;DHT22;11069;48.988;8.450;2022-08-04T05:06:27;20.80;99.90
21815;DHT22;11069;48.988;8.450;2022-08-04T05:11:45;20.90;99.90
21815;DHT22;11069;48.988;8.450;2022-08-04T05:14:29;21.00;99.90
21815;DHT22;11069;48.988;8.450;2022-08-04T05:17:19;21.00;99.90
21815;DHT22;11069;48.988;8.450;2022-08-04T05:22:53;21.20;99.90
21815;DHT22;11069;48.988;8.450;2022-08-04T05:25:24;21.30;99.90
21815;DHT22;11069;48.988;8.450;2022-08-04T05:28:02;21.40;99.90
21815;DHT22;11069;48.988;8.450;2022-08-04T05:30:33;21.60;99.90
21815;DHT22;11069;48.988;8.450;2022-08-04T05:33:03;21.70;99.90
21815;DHT22;11069;48.988;8.450;2022-08-04T05:35:33;21.70;99.90
21815;DHT22;11069;48.988;8.450;2022-08-04T05:38:01;21.80;99.90
21815;DHT22;11069;48.988;8.450;2022-08-04T05:40:28;21.90;99.90
21815;DHT22;11069;48.988;8.450;2022-08-04T05:42:55;22.10;99.90
21815;DHT22;11069;48.988;8.450;2022-08-04T05:45:21;22.10;99.90
21815;DHT22;11069;48.988;8.450;2022-08-04T05:47:50;22.30;99.90
21815;DHT22;11069;48.988;8.450;2022-08-04T05:50:17;22.40;99.90
21815;DHT22;11069;48.988;8.450;2022-08-04T05:52:44;22.50;99.90
21815;DHT22;11069;48.988;8.450;2022-08-04T05:55:10;22.60;99.90
21815;DHT22;11069;48.988;8.450;2022-08-04T05:57:39;22.70;99.90
21815;DHT22;11069;48.988;8.450;2022-08-04T06:00:06;22.80;99.90
21815;DHT22;11069;48.988;8.450;2022-08-04T06:02:34;22.90;99.90
21815;DHT22;11069;48.988;8.450;2022-08-04T06:05:01;22.90;99.90
21815;DHT22;11069;48.988;8.450;2022-08-04T06:07:30;23.00;99.90
21815;DHT22;11069;48.988;8.450;2022-08-04T06:09:55;23.00;99.90
21815;DHT22;11069;48.988;8.450;2022-08-04T06:12:24;23.20;99.90
21815;DHT22;11069;48.988;8.450;2022-08-04T06:14:53;23.30;99.90
21815;DHT22;11069;48.988;8.450;2022-08-04T06:17:29;23.40;99.70
21815;DHT22;11069;48.988;8.450;2022-08-04T06:19:56;23.50;99.40
21815;DHT22;11069;48.988;8.450;2022-08-04T06:22:23;23.60;99.00
21815;DHT22;11069;48.988;8.450;2022-08-04T06:24:50;23.70;98.60
21815;DHT22;11069;48.988;8.450;2022-08-04T06:27:18;23.80;98.90
21815;DHT22;11069;48.988;8.450;2022-08-04T06:29:45;24.00;98.50
21815;DHT22;11069;48.988;8.450;2022-08-04T06:32:12;24.20;98.60
21815;DHT22;11069;48.988;8.450;2022-08-04T06:35:17;24.40;97.80
21815;DHT22;11069;48.988;8.450;2022-08-04T06:37:45;25.60;96.10
21815;DHT22;11069;48.988;8.450;2022-08-04T06:40:13;26.80;94.50
21815;DHT22;11069;48.988;8.450;2022-08-04T06:42:39;27.40;91.60
21815;DHT22;11069;48.988;8.450;2022-08-04T06:45:06;27.90;90.00
21815;DHT22;11069;48.988;8.450;2022-08-04T06:47:36;28.10;89.30
21815;DHT22;11069;48.988;8.450;2022-08-04T06:50:04;28.50;87.90
21815;DHT22;11069;48.988;8.450;2022-08-04T06:52:30;28.50;87.50
21815;DHT22;11069;48.988;8.450;2022-08-04T06:54:56;28.50;85.90
21815;DHT22;11069;48.988;8.450;2022-08-04T06:57:25;28.30;85.50
21815;DHT22;11069;48.988;8.450;2022-08-04T06:59:57;28.30;85.90
21815;DHT22;11069;48.988;8.450;2022-08-04T07:02:26;27.90;85.00
21815;DHT22;11069;48.988;8.450;2022-08-04T07:04:52;27.90;84.90
21815;DHT22;11069;48.988;8.450;2022-08-04T07:07:18;28.00;85.40
21815;DHT22;11069;48.988;8.450;2022-08-04T07:09:44;28.00;84.20
21815;DHT22;11069;48.988;8.450;2022-08-04T07:12:10;28.00;84.80
21815;DHT22;11069;48.988;8.450;2022-08-04T07:14:36;27.90;84.20
21815;DHT22;11069;48.988;8.450;2022-08-04T07:17:04;28.10;84.70
21815;DHT22;11069;48.988;8.450;2022-08-04T07:19:31;28.40;85.00
21815;DHT22;11069;48.988;8.450;2022-08-04T07:22:01;28.70;84.00
21815;DHT22;11069;48.988;8.450;2022-08-04T07:24:31;28.80;81.90
21815;DHT22;11069;48.988;8.450;2022-08-04T07:26:57;28.70;81.50
21815;DHT22;11069;48.988;8.450;2022-08-04T07:29:23;28.80;81.40
21815;DHT22;11069;48.988;8.450;2022-08-04T07:31:49;28.80;80.90
21815;DHT22;11069;48.988;8.450;2022-08-04T07:34:15;28.90;81.90
21815;DHT22;11069;48.988;8.450;2022-08-04T07:36:41;29.10;81.40
21815;DHT22;11069;48.988;8.450;2022-08-04T07:39:06;29.30;80.00
21815;DHT22;11069;48.988;8.450;2022-08-04T07:41:32;29.40;81.30
21815;DHT22;11069;48.988;8.450;2022-08-04T07:43:58;29.60;80.40
21815;DHT22;11069;48.988;8.450;2022-08-04T07:46:24;29.80;78.80
21815;DHT22;11069;48.988;8.450;2022-08-04T07:48:50;29.80;78.40
21815;DHT22;11069;48.988;8.450;2022-08-04T07:51:16;29.80;79.50
21815;DHT22;11069;48.988;8.450;2022-08-04T07:53:43;29.80;79.40
21815;DHT22;11069;48.988;8.450;2022-08-04T07:56:10;30.00;78.80
21815;DHT22;11069;48.988;8.450;2022-08-04T07:58:36;30.00;79.00
21815;DHT22;11069;48.988;8.450;2022-08-04T08:01:04;30.10;77.90
21815;DHT22;11069;48.988;8.450;2022-08-04T08:03:30;30.20;77.40
21815;DHT22;11069;48.988;8.450;2022-08-04T08:05:56;30.20;77.70
21815;DHT22;11069;48.988;8.450;2022-08-04T08:08:22;30.30;76.90
21815;DHT22;11069;48.988;8.450;2022-08-04T08:10:48;30.40;76.70
21815;DHT22;11069;48.988;8.450;2022-08-04T08:13:15;30.60;77.00
21815;DHT22;11069;48.988;8.450;2022-08-04T08:15:44;30.90;74.60
21815;DHT22;11069;48.988;8.450;2022-08-04T08:18:10;31.10;73.90
21815;DHT22;11069;48.988;8.450;2022-08-04T08:20:35;31.20;74.60
21815;DHT22;11069;48.988;8.450;2022-08-04T08:23:02;31.40;73.90
21815;DHT22;11069;48.988;8.450;2022-08-04T08:25:29;31.90;73.60
21815;DHT22;11069;48.988;8.450;2022-08-04T08:27:56;32.50;73.00
21815;DHT22;11069;48.988;8.450;2022-08-04T08:30:23;33.00;70.80
21815;DHT22;11069;48.988;8.450;2022-08-04T08:32:49;33.30;69.60
21815;DHT22;11069;48.988;8.450;2022-08-04T08:35:15;33.20;70.20
21815;DHT22;11069;48.988;8.450;2022-08-04T08:37:49;32.80;68.70
21815;DHT22;11069;48.988;8.450;2022-08-04T08:40:29;32.80;69.30
21815;DHT22;11069;48.988;8.450;2022-08-04T08:45:52;32.50;65.90
21815;DHT22;11069;48.988;8.450;2022-08-04T09:02:01;32.70;65.60
21815;DHT22;11069;48.988;8.450;2022-08-04T09:07:50;33.20;65.00
21815;DHT22;11069;48.988;8.450;2022-08-04T09:10:26;33.50;64.70
21815;DHT22;11069;48.988;8.450;2022-08-04T09:13:03;33.80;63.70
21815;DHT22;11069;48.988;8.450;2022-08-04T09:18:23;34.00;63.30
21815;DHT22;11069;48.988;8.450;2022-08-04T09:21:03;34.30;60.50
21815;DHT22;11069;48.988;8.450;2022-08-04T09:26:30;34.20;60.50
21815;DHT22;11069;48.988;8.450;2022-08-04T09:29:32;34.50;60.20
21815;DHT22;11069;48.988;8.450;2022-08-04T09:32:19;34.60;58.30
21815;DHT22;11069;48.988;8.450;2022-08-04T09:46:04;34.90;59.60
21815;DHT22;11069;48.988;8.450;2022-08-04T09:48:52;35.40;59.20
21815;DHT22;11069;48.988;8.450;2022-08-04T09:54:08;35.40;58.80
21815;DHT22;11069;48.988;8.450;2022-08-04T09:56:57;35.50;59.10
21815;DHT22;11069;48.988;8.450;2022-08-04T09:59:40;35.90;56.60
21815;DHT22;11069;48.988;8.450;2022-08-04T10:02:10;35.20;58.00
21815;DHT22;11069;48.988;8.450;2022-08-04T10:04:38;34.90;59.30
21815;DHT22;11069;48.988;8.450;2022-08-04T10:10:20;35.10;60.90
21815;DHT22;11069;48.988;8.450;2022-08-04T10:12:56;34.20;58.60
21815;DHT22;11069;48.988;8.450;2022-08-04T10:15:35;34.20;59.60
21815;DHT22;11069;48.988;8.450;2022-08-04T10:26:02;35.90;59.20
21815;DHT22;11069;48.988;8.450;2022-08-04T10:28:32;35.50;58.30
21815;DHT22;11069;48.988;8.450;2022-08-04T10:31:07;35.50;59.00
21815;DHT22;11069;48.988;8.450;2022-08-04T10:33:44;36.00;55.90
21815;DHT22;11069;48.988;8.450;2022-08-04T10:36:16;35.90;55.80
21815;DHT22;11069;48.988;8.450;2022-08-04T10:39:07;35.60;57.80
21815;DHT22;11069;48.988;8.450;2022-08-04T10:41:53;35.50;54.80
21815;DHT22;11069;48.988;8.450;2022-08-04T10:47:07;36.50;54.30
21815;DHT22;11069;48.988;8.450;2022-08-04T10:49:42;36.30;55.40
21815;DHT22;11069;48.988;8.450;2022-08-04T10:52:30;35.90;57.50
21815;DHT22;11069;48.988;8.450;2022-08-04T10:55:17;36.10;54.30
21815;DHT22;11069;48.988;8.450;2022-08-04T10:57:54;35.70;55.70
21815;DHT22;11069;48.988;8.450;2022-08-04T11:00:25;36.20;52.50
21815;DHT22;11069;48.988;8.450;2022-08-04T11:03:07;36.80;52.00
21815;DHT22;11069;48.988;8.450;2022-08-04T11:10:50;38.00;52.80
21815;DHT22;11069;48.988;8.450;2022-08-04T11:13:16;38.30;51.40
21815;DHT22;11069;48.988;8.450;2022-08-04T11:15:50;38.50;53.60
21815;DHT22;11069;48.988;8.450;2022-08-04T11:23:38;37.30;51.10
21815;DHT22;11069;48.988;8.450;2022-08-04T11:26:18;37.20;53.30
21815;DHT22;11069;48.988;8.450;2022-08-04T11:31:31;36.70;52.50
21815;DHT22;11069;48.988;8.450;2022-08-04T11:34:01;36.90;53.20
21815;DHT22;11069;48.988;8.450;2022-08-04T11:36:43;38.20;51.00
21815;DHT22;11069;48.988;8.450;2022-08-04T11:39:34;38.80;47.50
21815;DHT22;11069;48.988;8.450;2022-08-04T11:45:03;37.60;47.00
21815;DHT22;11069;48.988;8.450;2022-08-04T11:50:17;38.30;47.90
21815;DHT22;11069;48.988;8.450;2022-08-04T11:52:45;38.80;46.30
21815;DHT22;11069;48.988;8.450;2022-08-04T11:55:15;39.30;47.90
21815;DHT22;11069;48.988;8.450;2022-08-04T11:57:42;39.80;49.00
21815;DHT22;11069;48.988;8.450;2022-08-04T12:00:11;39.10;47.40
21815;DHT22;11069;48.988;8.450;2022-08-04T12:05:30;39.10;48.50
21815;DHT22;11069;48.988;8.450;2022-08-04T12:08:10;38.60;46.70
21815;DHT22;11069;48.988;8.450;2022-08-04T12:13:34;38.70;47.50
21815;DHT22;11069;48.988;8.450;2022-08-04T12:16:02;38.90;47.30
21815;DHT22;11069;48.988;8.450;2022-08-04T12:18:42;38.50;42.70
21815;DHT22;11069;48.988;8.450;2022-08-04T12:24:00;38.80;45.70
21815;DHT22;11069;48.988;8.450;2022-08-04T12:26:31;39.70;42.00
21815;DHT22;11069;48.988;8.450;2022-08-04T12:28:57;40.10;42.50
21815;DHT22;11069;48.988;8.450;2022-08-04T12:31:37;40.70;41.20
21815;DHT22;11069;48.988;8.450;2022-08-04T12:37:05;40.30;41.80
21815;DHT22;11069;48.988;8.450;2022-08-04T12:39:37;40.00;42.80
21815;DHT22;11069;48.988;8.450;2022-08-04T12:44:45;39.10;43.90
21815;DHT22;11069;48.988;8.450;2022-08-04T12:47:16;40.70;41.90
21815;DHT22;11069;48.988;8.450;2022-08-04T12:49:44;41.80;40.20
21815;DHT22;11069;48.988;8.450;2022-08-04T12:52:13;41.70;40.30
21815;DHT22;11069;48.988;8.450;2022-08-04T12:54:40;41.80;39.70
21815;DHT22;11069;48.988;8.450;2022-08-04T12:57:08;40.80;40.60
21815;DHT22;11069;48.988;8.450;2022-08-04T12:59:45;40.90;41.00
21815;DHT22;11069;48.988;8.450;2022-08-04T13:02:26;41.20;41.70
21815;DHT22;11069;48.988;8.450;2022-08-04T13:04:53;40.10;41.80
21815;DHT22;11069;48.988;8.450;2022-08-04T13:07:22;41.20;42.90
21815;DHT22;11069;48.988;8.450;2022-08-04T13:09:49;39.30;40.80
21815;DHT22;11069;48.988;8.450;2022-08-04T13:12:25;39.90;42.40
21815;DHT22;11069;48.988;8.450;2022-08-04T13:15:11;39.90;40.80
21815;DHT22;11069;48.988;8.450;2022-08-04T13:20:47;41.20;42.00
21815;DHT22;11069;48.988;8.450;2022-08-04T13:23:14;40.60;41.30
21815;DHT22;11069;48.988;8.450;2022-08-04T13:25:47;40.70;40.70
21815;DHT22;11069;48.988;8.450;2022-08-04T13:28:19;41.60;40.20
21815;DHT22;11069;48.988;8.450;2022-08-04T13:30:47;41.40;41.00
21815;DHT22;11069;48.988;8.450;2022-08-04T13:33:18;40.70;39.80
21815;DHT22;11069;48.988;8.450;2022-08-04T13:35:45;42.00;38.50
21815;DHT22;11069;48.988;8.450;2022-08-04T13:38:13;42.00;40.50
21815;DHT22;11069;48.988;8.450;2022-08-04T13:40:40;42.60;38.30
21815;DHT22;11069;48.988;8.450;2022-08-04T13:43:08;42.60;38.30
21815;DHT22;11069;48.988;8.450;2022-08-04T13:45:34;40.80;39.20
21815;DHT22;11069;48.988;8.450;2022-08-04T13:48:01;41.40;39.40
21815;DHT22;11069;48.988;8.450;2022-08-04T13:50:29;40.50;40.50
21815;DHT22;11069;48.988;8.450;2022-08-04T13:52:58;40.90;41.70
21815;DHT22;11069;48.988;8.450;2022-08-04T13:55:28;41.00;38.60
21815;DHT22;11069;48.988;8.450;2022-08-04T13:57:58;42.00;39.80
21815;DHT22;11069;48.988;8.450;2022-08-04T14:00:26;41.30;38.10
21815;DHT22;11069;48.988;8.450;2022-08-04T14:03:03;40.60;38.30
21815;DHT22;11069;48.988;8.450;2022-08-04T14:05:30;41.50;38.80
21815;DHT22;11069;48.988;8.450;2022-08-04T14:08:04;41.20;39.50
21815;DHT22;11069;48.988;8.450;2022-08-04T14:10:32;42.20;39.00
21815;DHT22;11069;48.988;8.450;2022-08-04T14:12:58;40.60;39.60
21815;DHT22;11069;48.988;8.450;2022-08-04T14:15:31;41.60;38.80
21815;DHT22;11069;48.988;8.450;2022-08-04T14:18:17;42.70;37.20
21815;DHT22;11069;48.988;8.450;2022-08-04T14:21:05;43.20;37.80
21815;DHT22;11069;48.988;8.450;2022-08-04T14:23:52;42.30;37.50
21815;DHT22;11069;48.988;8.450;2022-08-04T14:26:28;41.60;42.20
21815;DHT22;11069;48.988;8.450;2022-08-04T14:28:55;40.30;38.20
21815;DHT22;11069;48.988;8.450;2022-08-04T14:31:30;40.40;37.80
21815;DHT22;11069;48.988;8.450;2022-08-04T14:33:56;40.70;36.70
21815;DHT22;11069;48.988;8.450;2022-08-04T14:36:22;40.70;35.80
21815;DHT22;11069;48.988;8.450;2022-08-04T14:38:53;40.20;36.20
21815;DHT22;11069;48.988;8.450;2022-08-04T14:41:27;40.60;36.10
21815;DHT22;11069;48.988;8.450;2022-08-04T14:43:59;40.60;35.50
21815;DHT22;11069;48.988;8.450;2022-08-04T14:46:26;40.50;35.40
21815;DHT22;11069;48.988;8.450;2022-08-04T14:49:10;41.30;37.00
21815;DHT22;11069;48.988;8.450;2022-08-04T14:51:55;41.80;34.20
21815;DHT22;11069;48.988;8.450;2022-08-04T14:54:33;42.20;35.50
21815;DHT22;11069;48.988;8.450;2022-08-04T14:57:04;42.20;34.70
21815;DHT22;11069;48.988;8.450;2022-08-04T14:59:48;41.50;35.00
21815;DHT22;11069;48.988;8.450;2022-08-04T15:02:15;42.70;34.60
21815;DHT22;11069;48.988;8.450;2022-08-04T15:04:47;40.90;34.90
21815;DHT22;11069;48.988;8.450;2022-08-04T15:07:14;40.60;34.80
21815;DHT22;11069;48.988;8.450;2022-08-04T15:09:41;40.40;33.50
21815;DHT22;11069;48.988;8.450;2022-08-04T15:12:07;41.30;33.90
21815;DHT22;11069;48.988;8.450;2022-08-04T15:14:32;41.40;34.60
21815;DHT22;11069;48.988;8.450;2022-08-04T15:17:00;41.70;33.50
21815;DHT22;11069;48.988;8.450;2022-08-04T15:19:26;42.00;33.20
21815;DHT22;11069;48.988;8.450;2022-08-04T15:21:52;42.10;31.50
21815;DHT22;11069;48.988;8.450;2022-08-04T15:24:18;41.60;33.30
21815;DHT22;11069;48.988;8.450;2022-08-04T15:26:48;41.60;33.00
21815;DHT22;11069;48.988;8.450;2022-08-04T15:29:29;42.10;30.70
21815;DHT22;11069;48.988;8.450;2022-08-04T15:31:56;42.40;31.00
21815;DHT22;11069;48.988;8.450;2022-08-04T15:34:22;43.00;32.30
21815;DHT22;11069;48.988;8.450;2022-08-04T15:36:56;43.80;33.20
21815;DHT22;11069;48.988;8.450;2022-08-04T15:39:33;42.70;30.80
21815;DHT22;11069;48.988;8.450;2022-08-04T15:45:16;43.80;29.70
21815;DHT22;11069;48.988;8.450;2022-08-04T15:50:29;44.30;29.00
21815;DHT22;11069;48.988;8.450;2022-08-04T15:55:37;43.70;31.50
21815;DHT22;11069;48.988;8.450;2022-08-04T15:58:13;43.80;31.00
21815;DHT22;11069;48.988;8.450;2022-08-04T16:21:47;42.10;30.50
21815;DHT22;11069;48.988;8.450;2022-08-04T16:24:21;41.40;32.70
21815;DHT22;11069;48.988;8.450;2022-08-04T16:26:57;41.20;31.40
21815;DHT22;11069;48.988;8.450;2022-08-04T16:32:21;41.40;30.00
21815;DHT22;11069;48.988;8.450;2022-08-04T16:34:59;41.70;33.40
21815;DHT22;11069;48.988;8.450;2022-08-04T16:37:32;41.90;29.70
21815;DHT22;11069;48.988;8.450;2022-08-04T16:40:30;41.80;29.20
21815;DHT22;11069;48.988;8.450;2022-08-04T16:43:28;41.50;31.70
21815;DHT22;11069;48.988;8.450;2022-08-04T16:46:01;41.60;30.10
21815;DHT22;11069;48.988;8.450;2022-08-04T16:48:34;40.40;32.50
21815;DHT22;11069;48.988;8.450;2022-08-04T16:51:05;40.80;34.10
21815;DHT22;11069;48.988;8.450;2022-08-04T16:53:34;40.90;35.10
21815;DHT22;11069;48.988;8.450;2022-08-04T16:56:00;41.10;32.20
21815;DHT22;11069;48.988;8.450;2022-08-04T16:58:31;41.20;31.20
21815;DHT22;11069;48.988;8.450;2022-08-04T17:01:06;41.10;31.60
21815;DHT22;11069;48.988;8.450;2022-08-04T17:03:32;40.70;34.80
21815;DHT22;11069;48.988;8.450;2022-08-04T17:06:06;39.80;32.60
21815;DHT22;11069;48.988;8.450;2022-08-04T17:08:32;39.60;33.20
21815;DHT22;11069;48.988;8.450;2022-08-04T17:10:59;39.50;36.90
21815;DHT22;11069;48.988;8.450;2022-08-04T17:16:00;39.10;35.40
21815;DHT22;11069;48.988;8.450;2022-08-04T17:18:28;38.70;35.40
21815;DHT22;11069;48.988;8.450;2022-08-04T17:20:57;38.40;35.00
21815;DHT22;11069;48.988;8.450;2022-08-04T17:23:29;38.40;39.00
21815;DHT22;11069;48.988;8.450;2022-08-04T17:26:04;38.60;37.50
21815;DHT22;11069;48.988;8.450;2022-08-04T17:28:31;38.80;40.50
21815;DHT22;11069;48.988;8.450;2022-08-04T17:30:59;38.80;40.10
21815;DHT22;11069;48.988;8.450;2022-08-04T17:33:25;38.40;39.10
21815;DHT22;11069;48.988;8.450;2022-08-04T17:35:54;37.70;37.40
21815;DHT22;11069;48.988;8.450;2022-08-04T17:38:22;37.00;40.70
21815;DHT22;11069;48.988;8.450;2022-08-04T17:41:00;36.20;40.80
21815;DHT22;11069;48.988;8.450;2022-08-04T17:49:19;34.80;44.00
21815;DHT22;11069;48.988;8.450;2022-08-04T17:51:53;34.50;45.70
21815;DHT22;11069;48.988;8.450;2022-08-04T17:54:30;34.20;45.40
21815;DHT22;11069;48.988;8.450;2022-08-04T17:56:57;33.90;44.20
21815;DHT22;11069;48.988;8.450;2022-08-04T17:59:30;33.60;46.20
21815;DHT22;11069;48.988;8.450;2022-08-04T18:02:04;33.30;47.60
21815;DHT22;11069;48.988;8.450;2022-08-04T18:04:35;33.00;48.20
21815;DHT22;11069;48.988;8.450;2022-08-04T18:09:55;32.50;50.70
21815;DHT22;11069;48.988;8.450;2022-08-04T18:12:26;32.40;50.00
21815;DHT22;11069;48.988;8.450;2022-08-04T18:14:53;32.20;51.80
21815;DHT22;11069;48.988;8.450;2022-08-04T18:17:34;32.00;52.50
21815;DHT22;11069;48.988;8.450;2022-08-04T18:20:03;31.90;52.40
21815;DHT22;11069;48.988;8.450;2022-08-04T18:22:29;31.60;54.40
21815;DHT22;11069;48.988;8.450;2022-08-04T18:24:55;31.60;54.80
21815;DHT22;11069;48.988;8.450;2022-08-04T18:27:24;31.40;54.80
21815;DHT22;11069;48.988;8.450;2022-08-04T18:29:50;31.30;56.00
21815;DHT22;11069;48.988;8.450;2022-08-04T18:32:16;31.20;56.00
21815;DHT22;11069;48.988;8.450;2022-08-04T18:34:42;31.00;56.50
21815;DHT22;11069;48.988;8.450;2022-08-04T18:37:08;31.00;57.50
21815;DHT22;11069;48.988;8.450;2022-08-04T18:39:34;30.80;58.60
21815;DHT22;11069;48.988;8.450;2022-08-04T18:42:00;30.60;59.60
21815;DHT22;11069;48.988;8.450;2022-08-04T18:44:25;30.50;59.20
21815;DHT22;11069;48.988;8.450;2022-08-04T18:46:53;30.30;59.20
21815;DHT22;11069;48.988;8.450;2022-08-04T18:49:19;30.30;60.00
21815;DHT22;11069;48.988;8.450;2022-08-04T18:51:57;30.20;61.00
21815;DHT22;11069;48.988;8.450;2022-08-04T18:54:23;30.00;61.80
21815;DHT22;11069;48.988;8.450;2022-08-04T18:56:51;29.80;62.70
21815;DHT22;11069;48.988;8.450;2022-08-04T18:59:17;29.60;63.60
21815;DHT22;11069;48.988;8.450;2022-08-04T19:01:43;29.40;64.40
21815;DHT22;11069;48.988;8.450;2022-08-04T19:04:09;29.20;65.00
21815;DHT22;11069;48.988;8.450;2022-08-04T19:06:35;29.10;65.40
21815;DHT22;11069;48.988;8.450;2022-08-04T19:09:02;29.00;65.60
21815;DHT22;11069;48.988;8.450;2022-08-04T19:11:29;28.90;66.90
21815;DHT22;11069;48.988;8.450;2022-08-04T19:13:55;28.70;66.10
21815;DHT22;11069;48.988;8.450;2022-08-04T19:16:20;28.70;66.70
21815;DHT22;11069;48.988;8.450;2022-08-04T19:18:46;28.60;67.70
21815;DHT22;11069;48.988;8.450;2022-08-04T19:21:12;28.40;67.80
21815;DHT22;11069;48.988;8.450;2022-08-04T19:23:38;28.30;68.50
21815;DHT22;11069;48.988;8.450;2022-08-04T19:26:03;28.10;68.60
21815;DHT22;11069;48.988;8.450;2022-08-04T19:28:33;28.00;68.70
21815;DHT22;11069;48.988;8.450;2022-08-04T19:30:59;28.00;69.20
21815;DHT22;11069;48.988;8.450;2022-08-04T19:33:25;27.90;71.20
21815;DHT22;11069;48.988;8.450;2022-08-04T19:35:50;27.80;69.80
21815;DHT22;11069;48.988;8.450;2022-08-04T19:38:16;27.70;70.80
21815;DHT22;11069;48.988;8.450;2022-08-04T19:40:43;27.50;70.60
21815;DHT22;11069;48.988;8.450;2022-08-04T19:43:10;27.40;71.30
21815;DHT22;11069;48.988;8.450;2022-08-04T19:45:36;27.20;71.50
21815;DHT22;11069;48.988;8.450;2022-08-04T19:48:03;27.10;72.50
21815;DHT22;11069;48.988;8.450;2022-08-04T19:50:30;27.10;72.80
21815;DHT22;11069;48.988;8.450;2022-08-04T19:52:56;27.00;73.40
21815;DHT22;11069;48.988;8.450;2022-08-04T19:55:23;27.10;74.30
21815;DHT22;11069;48.988;8.450;2022-08-04T19:57:49;26.90;75.50
21815;DHT22;11069;48.988;8.450;2022-08-04T20:00:17;26.90;75.20
21815;DHT22;11069;48.988;8.450;2022-08-04T20:02:43;26.80;75.30
21815;DHT22;11069;48.988;8.450;2022-08-04T20:05:10;26.70;75.30
21815;DHT22;11069;48.988;8.450;2022-08-04T20:07:36;26.50;76.50
21815;DHT22;11069;48.988;8.450;2022-08-04T20:10:03;26.40;78.40
21815;DHT22;11069;48.988;8.450;2022-08-04T20:12:29;26.30;78.40
21815;DHT22;11069;48.988;8.450;2022-08-04T20:14:55;26.20;79.90
21815;DHT22;11069;48.988;8.450;2022-08-04T20:17:21;26.10;78.80
21815;DHT22;11069;48.988;8.450;2022-08-04T20:19:46;26.10;79.30
21815;DHT22;11069;48.988;8.450;2022-08-04T20:22:12;26.20;78.80